Latest Weather Observations for Alice Springs Airport

IDD60801

Issued at 7:31 am CST Saturday 28 March 2015 (issued every 30 minutes, with the page automatically refreshed every 10 minutes)

About weather observations | Map of weather stations | Latest weather observations for NT | Other Formats
Station Details ID: 015590 Name: ALICE SPRINGS AIRPORT Lat: -23.80 Lon: 133.89 Height: 546.0 m
Data from the previous 72 hours. | See also: Recent months at Alice Springs Airport
Date/Time
CST
Temp
°C
App
Temp
°C
Dew
Point
Rel
Hum
%
Delta-T
°C
Wind Press
QNH
hPa
Press
MSL
hPa
Rain
since 9 am
mm
Dir
 
Spd
km/h
Gust
km/h
Spd
kts
Gust
kts
28/07:00am 14.7 11.2 -1.5 33 6.8 E 7 9 4 5 1022.0 1018.7 0.0
28/06:30am 14.1 11.7 -0.4 37 6.2 E 2 6 1 3 1021.6 1018.4 0.0
28/05:30am 17.1 12.6 -3.2 25 8.4 ESE 11 13 6 7 1021.3 1018.1 0.0
28/05:00am 16.2 12.4 -0.6 32 7.3 ESE 9 11 5 6 1021.1 1017.9 0.0
28/04:30am 16.2 12.5 0.1 33 7.1 ESE 9 11 5 6 1021.0 1017.8 0.0
28/04:00am 17.0 13.2 -1.0 29 7.8 E 9 11 5 6 1021.0 1017.8 0.0
28/03:30am 16.9 13.6 0.2 32 7.4 E 7 9 4 5 1021.2 1018.0 0.0
28/03:00am 18.8 14.7 -3.4 22 9.3 E 9 13 5 7 1021.3 1018.1 0.0
28/02:30am 18.3 14.7 -1.9 25 8.7 ESE 7 11 4 6 1021.6 1018.4 0.0
28/02:00am 17.7 13.9 -0.8 28 8.1 ESE 9 11 5 6 1021.8 1018.5 0.0
28/01:30am 17.2 13.7 1.1 33 7.3 ESE 9 11 5 6 1022.1 1018.8 0.0
28/01:00am 18.9 15.5 -0.8 26 8.7 ENE 7 9 4 5 1022.5 1019.3 0.0
28/12:30am 18.6 14.3 -1.7 25 8.8 SE 11 13 6 7 1022.5 1019.3 0.0
28/12:00am 19.2 15.4 -0.9 25 8.9 ESE 9 11 5 6 1022.7 1019.5 0.0
 
Date/Time
CST
Temp
°C
App
Temp
°C
Dew
Point
Rel
Hum
%
Delta-T
°C
Wind Press
QNH
hPa
Press
MSL
hPa
Rain
since 9 am
mm
Dir
 
Spd
km/h
Gust
km/h
Spd
kts
Gust
kts
27/11:30pm 19.4 15.2 -0.9 25 9.0 SE 11 13 6 7 1022.8 1019.6 0.0
27/11:00pm 19.9 15.9 -2.3 22 9.6 ESE 9 11 5 6 1023.0 1019.8 0.0
27/10:30pm 20.4 16.3 -2.9 20 10.0 ESE 9 9 5 5 1022.9 1019.7 0.0
27/10:00pm 20.5 16.5 -2.2 21 9.9 ESE 9 9 5 5 1022.9 1019.7 0.0
27/09:30pm 21.8 17.1 -5.1 16 11.2 ESE 11 13 6 7 1022.8 1019.6 0.0
27/09:00pm 22.0 17.3 -5.0 16 11.3 ESE 11 15 6 8 1022.6 1019.4 0.0
27/08:30pm 22.1 17.0 -5.3 15 11.4 SE 13 15 7 8 1022.4 1019.2 0.0
27/08:00pm 22.2 17.1 -5.0 16 11.4 SE 13 15 7 8 1022.1 1018.8 0.0
27/07:30pm 23.0 17.9 -4.9 15 11.8 SE 13 17 7 9 1021.6 1018.4 0.0
27/07:00pm 24.3 18.7 -6.5 12 12.8 SE 15 20 8 11 1021.3 1018.1 0.0
27/06:30pm 25.2 19.7 -5.5 12 13.1 SE 15 20 8 11 1021.1 1017.9 0.0
27/06:00pm 26.2 20.2 -6.9 11 13.9 ESE 17 24 9 13 1020.9 1017.7 0.0
27/05:30pm 26.6 20.1 -6.2 11 14.0 SE 20 28 11 15 1020.5 1017.2 0.0
27/05:00pm 27.1 20.5 -6.9 10 14.4 SE 20 30 11 16 1020.5 1017.2 0.0
27/04:30pm 27.4 20.1 -6.5 10 14.5 ESE 24 35 13 19 1020.4 1017.1 0.0
27/04:00pm 27.2 20.3 -6.6 10 14.4 ESE 22 35 12 19 1020.5 1017.2 0.0
27/03:30pm 26.7 20.1 -6.5 11 14.1 SE 20 30 11 16 1020.9 1017.7 0.0
27/03:00pm 26.7 19.8 -6.5 11 14.1 ESE 22 30 12 16 1021.3 1018.1 0.0
27/02:30pm 26.9 20.3 -7.0 10 14.3 SE 20 33 11 18 1021.5 1018.3 0.0
27/02:00pm 25.5 19.0 -5.7 12 13.3 SE 20 33 11 18 1022.1 1018.8 0.0
27/01:30pm 25.0 18.7 -5.6 13 13.0 SE 19 35 10 19 1022.5 1019.3 0.0
27/01:00pm 25.1 18.6 -5.8 12 13.1 ESE 20 30 11 16 1023.0 1019.8 0.0
27/12:30pm 24.1 17.7 -4.5 14 12.3 ESE 20 30 11 16 1023.9 1020.6 0.0
27/12:00pm 23.6 17.3 -4.3 15 12.0 SE 20 30 11 16 1024.5 1021.3 0.0
27/11:30am 22.7 15.7 -3.8 17 11.4 SE 24 35 13 19 1024.9 1021.7 0.0
27/11:00am 22.6 15.5 -4.0 16 11.4 SE 24 33 13 18 1025.4 1022.2 0.0
27/10:30am 21.6 14.6 -3.7 18 10.8 ESE 24 35 13 19 1025.9 1022.7 0.0
27/10:00am 21.0 14.0 -3.8 18 10.6 ESE 24 35 13 19 1026.3 1023.1 0.0
27/09:30am 19.7 12.4 -3.2 21 9.7 ESE 26 33 14 18 1026.3 1023.1 0.0
27/09:00am 19.3 11.6 -2.8 22 9.4 ESE 28 39 15 21 1026.7 1023.5 0.0
27/08:30am 18.1 10.5 -2.0 25 8.6 ESE 28 41 15 22 1026.5 1023.3 0.0
27/08:00am 17.1 10.0 -1.3 28 8.0 ESE 26 32 14 17 1026.4 1023.2 0.0
27/07:30am 16.2 11.4 2.6 40 6.3 ESE 17 30 9 16 1025.9 1022.7 0.0
27/07:00am 14.3 10.9 3.8 49 4.9 SE 11 15 6 8 1025.9 1022.7 0.0
27/06:30am 13.6 10.2 4.0 52 4.5 SE 11 13 6 7 1025.5 1022.3 0.0
27/06:00am 13.6 10.2 4.2 53 4.4 SSE 11 13 6 7 1025.3 1022.1 0.0
27/05:30am 14.3 11.3 4.1 50 4.8 SE 9 11 5 6 1025.0 1021.8 0.0
27/05:00am 14.2 11.3 4.8 53 4.5 SE 9 11 5 6 1024.9 1021.7 0.0
27/04:30am 15.1 12.2 4.4 48 5.1 SE 9 9 5 5 1024.8 1021.6 0.0
27/04:00am 15.2 12.8 5.3 51 4.8 SE 7 9 4 5 1024.6 1021.4 0.0
27/03:30am 16.2 13.2 4.3 45 5.7 SE 9 13 5 7 1024.7 1021.5 0.0
27/03:00am 17.0 13.7 4.4 43 6.1 SE 11 15 6 8 1024.9 1021.7 0.0
27/02:30am 18.0 14.2 3.9 39 6.8 SE 13 17 7 9 1025.0 1021.8 0.0
27/02:00am 18.0 14.3 4.5 41 6.6 ESE 13 15 7 8 1025.1 1021.9 0.0
27/01:30am 18.8 14.6 4.0 37 7.2 SE 15 17 8 9 1025.2 1022.0 0.0
27/01:00am 19.2 15.4 4.0 36 7.4 SE 13 19 7 10 1025.4 1022.2 0.0
27/12:30am 19.1 15.4 4.4 38 7.2 SE 13 15 7 8 1025.4 1022.2 0.0
27/12:00am 19.6 15.9 4.4 36 7.5 SE 13 17 7 9 1025.7 1022.4 0.0
 
Date/Time
CST
Temp
°C
App
Temp
°C
Dew
Point
Rel
Hum
%
Delta-T
°C
Wind Press
QNH
hPa
Press
MSL
hPa
Rain
since 9 am
mm
Dir
 
Spd
km/h
Gust
km/h
Spd
kts
Gust
kts
26/11:30pm 20.5 16.3 4.0 33 8.1 SE 15 24 8 13 1025.7 1022.4 0.0
26/11:00pm 21.2 16.5 3.4 31 8.7 ESE 17 26 9 14 1025.7 1022.4 0.0
26/10:30pm 21.2 16.5 3.4 31 8.7 ESE 17 24 9 13 1025.5 1022.3 0.0
26/10:00pm 21.7 16.9 2.7 28 9.2 ESE 17 26 9 14 1025.4 1022.2 0.0
26/09:30pm 21.8 17.7 2.5 28 9.3 SE 13 19 7 10 1025.2 1022.0 0.0
26/09:00pm 22.1 17.7 2.7 28 9.4 SE 15 19 8 10 1025.1 1021.9 0.0
26/08:30pm 22.9 18.0 1.9 25 10.1 SE 17 20 9 11 1024.6 1021.4 0.0
26/08:00pm 23.2 18.6 1.8 24 10.3 SE 15 19 8 10 1024.2 1021.0 0.0
26/07:30pm 23.8 18.4 1.2 22 10.8 SE 19 30 10 16 1023.9 1020.6 0.0
26/07:00pm 24.4 18.0 1.0 21 11.2 SE 24 33 13 18 1023.4 1020.2 0.0
26/06:30pm 25.1 19.0 0.6 20 11.7 SE 22 30 12 16 1023.0 1019.8 0.0
26/06:00pm 26.0 19.4 -0.2 18 12.4 SE 24 37 13 20 1022.7 1019.5 0.0
26/05:30pm 26.9 20.8 0.2 17 12.8 SE 22 32 12 17 1022.6 1019.4 0.0
26/05:00pm 26.9 20.3 -0.2 17 13.0 ESE 24 37 13 20 1022.5 1019.3 0.0
26/04:30pm 26.9 20.0 -0.1 17 12.9 SE 26 37 14 20 1022.3 1019.0 0.0
26/04:00pm 26.9 19.6 -0.1 17 12.9 ESE 28 39 15 21 1022.2 1018.9 0.0
26/03:30pm 27.3 20.0 0.0 17 13.1 ESE 28 35 15 19 1022.4 1019.2 0.0
26/03:00pm 27.0 20.0 -0.3 17 13.0 ESE 26 37 14 20 1022.6 1019.4 0.0
26/02:30pm 28.0 21.0 -0.4 15 13.6 SE 26 35 14 19 1022.8 1019.6 0.0
26/02:00pm 26.9 20.2 -1.0 16 13.1 SE 24 35 13 19 1023.1 1019.9 0.0
26/01:30pm 27.0 20.0 -0.8 16 13.1 ESE 26 37 14 20 1023.5 1020.3 0.0
26/01:00pm 26.6 19.2 -0.9 16 13.0 SE 28 41 15 22 1024.0 1020.7 0.0
26/12:30pm 26.6 19.6 -0.5 17 12.8 SE 26 41 14 22 1024.4 1021.2 0.0
26/12:00pm 25.5 18.1 -1.0 17 12.3 ESE 28 41 15 22 1025.0 1021.8 0.0
26/11:30am 25.1 17.7 -0.7 18 12.0 ESE 28 35 15 19 1025.3 1022.1 0.0
26/11:00am 24.4 17.3 -1.0 18 11.7 ESE 26 41 14 22 1025.5 1022.3 0.0
26/10:30am 24.2 16.4 -1.1 18 11.6 ESE 30 39 16 21 1025.8 1022.6 0.0
26/10:00am 23.4 15.9 -1.3 19 11.3 ESE 28 39 15 21 1025.9 1022.7 0.0
26/09:30am 23.1 14.8 -1.5 19 11.1 ESE 32 41 17 22 1026.0 1022.8 0.0
26/09:00am 22.5 15.8 -0.8 21 10.6 ESE 24 35 13 19 1025.8 1022.6 0.0
26/08:30am 20.6 15.4 -0.1 25 9.4 E 17 26 9 14 1025.4 1022.2 0.0
26/08:00am 19.5 15.4 0.0 27 8.8 ESE 11 13 6 7 1025.1 1021.9 0.0
26/07:30am 17.2 14.2 1.1 33 7.3 SE 6 7 3 4 1024.7 1021.5 0.0
26/07:00am 14.4 11.4 2.3 44 5.5 SE 7 7 4 4 1024.4 1021.2 0.0
26/06:30am 15.3 12.2 1.2 38 6.3 ESE 7 9 4 5 1024.1 1020.9 0.0
26/06:00am 15.9 11.9 0.5 35 6.8 ESE 11 11 6 6 1023.6 1020.4 0.0
26/05:30am 15.7 12.1 0.9 36 6.6 SE 9 9 5 5 1023.4 1020.2 0.0
26/05:00am 15.3 11.6 2.1 41 6.0 SE 11 11 6 6 1023.1 1019.9 0.0
26/04:30am 16.3 12.7 0.6 34 7.0 ESE 9 11 5 6 1022.8 1019.6 0.0
26/04:00am 16.0 12.1 1.4 37 6.6 SSE 11 13 6 7 1022.7 1019.5 0.0
26/03:30am 16.8 12.7 0.1 32 7.4 SE 11 13 6 7 1022.6 1019.4 0.0
26/03:00am 17.3 13.4 0.9 33 7.4 SE 11 11 6 6 1022.6 1019.4 0.0
26/02:30am 19.3 14.7 -1.1 25 9.0 ESE 13 17 7 9 1022.6 1019.4 0.0
26/02:00am 17.9 13.9 0.3 30 7.9 SE 11 11 6 6 1022.7 1019.5 0.0
26/01:30am 18.9 14.8 0.0 28 8.5 SE 11 11 6 6 1022.7 1019.5 0.0
26/01:00am 19.4 15.3 -0.2 26 8.8 ESE 11 13 6 7 1022.5 1019.3 0.0
26/12:30am 19.6 15.2 0.2 27 8.8 ESE 13 15 7 8 1022.8 1019.6 0.0
26/12:00am 21.4 16.8 -0.7 23 10.0 ESE 13 15 7 8 1023.0 1019.8 0.0
 
Date/Time
CST
Temp
°C
App
Temp
°C
Dew
Point
Rel
Hum
%
Delta-T
°C
Wind Press
QNH
hPa
Press
MSL
hPa
Rain
since 9 am
mm
Dir
 
Spd
km/h
Gust
km/h
Spd
kts
Gust
kts
25/11:30pm 22.2 17.2 -1.0 21 10.5 ESE 15 19 8 10 1022.9 1019.7 0.0
25/11:00pm 22.5 17.6 -0.4 22 10.5 SE 15 19 8 10 1023.0 1019.8 0.0
25/10:30pm 22.9 18.4 -0.3 21 10.7 ESE 13 19 7 10 1022.9 1019.7 0.0
25/10:00pm 21.9 18.0 1.0 25 9.8 SE 11 13 6 7 1022.8 1019.6 0.0
25/09:30pm 22.7 18.4 0.8 23 10.3 SE 13 17 7 9 1022.8 1019.6 0.0
25/09:00pm 24.0 19.5 -0.3 20 11.3 SE 13 19 7 10 1022.5 1019.3 0.0
25/08:30pm 24.7 19.4 -0.3 19 11.7 SE 17 24 9 13 1022.3 1019.0 0.0
25/08:00pm 25.3 20.1 -0.2 18 12.0 ESE 17 24 9 13 1022.0 1018.7 0.0
25/07:30pm 25.6 20.9 0.9 20 11.9 SE 15 19 8 10 1021.4 1018.2 0.0
25/07:00pm 25.9 20.9 1.2 20 12.0 SE 17 26 9 14 1021.0 1017.8 0.0
25/06:30pm 26.7 21.0 0.6 18 12.6 SE 20 28 11 15 1020.6 1017.3 0.0
25/06:00pm 27.5 21.5 0.9 17 13.0 SE 22 32 12 17 1020.2 1016.9 0.0
25/05:30pm 28.4 22.0 1.0 17 13.5 ESE 24 35 13 19 1019.9 1016.6 0.0
25/05:00pm 28.8 23.0 2.2 18 13.4 SE 22 32 12 17 1019.3 1016.1 0.0
25/04:30pm 28.7 23.3 2.7 19 13.2 SE 20 30 11 16 1019.3 1016.1 0.0
25/04:00pm 29.2 24.0 3.4 19 13.3 SE 20 30 11 16 1019.1 1015.9 0.0
25/03:30pm 29.3 24.2 4.0 20 13.2 ESE 20 39 11 21 1019.1 1015.9 0.0
25/03:00pm 29.5 23.1 3.4 19 13.5 SE 26 37 14 20 1019.3 1016.1 0.0
25/02:30pm 28.6 23.5 3.9 20 12.8 SSE 20 32 11 17 1019.5 1016.3 0.0
25/02:00pm 28.9 23.3 3.5 19 13.1 SE 22 33 12 18 1019.7 1016.5 0.0
25/01:30pm 28.6 23.5 3.2 19 13.0 SE 19 30 10 16 1020.4 1017.1 0.0
25/01:00pm 27.1 22.1 3.6 22 12.0 SSE 19 30 10 16 1020.7 1017.4 0.0
25/12:30pm 27.0 21.7 3.1 21 12.1 SE 20 30 11 16 1021.0 1017.8 0.0
25/12:00pm 26.6 21.4 2.6 21 12.0 SE 19 32 10 17 1021.5 1018.3 0.0
25/11:30am 25.9 21.2 3.3 23 11.4 SE 17 28 9 15 1022.1 1018.8 0.0
25/11:00am 24.6 20.9 4.4 27 10.3 E 13 22 7 12 1022.3 1019.0 0.0
25/10:30am 23.9 19.5 2.8 25 10.4 E 15 28 8 15 1022.4 1019.2 0.0
25/10:00am 23.1 18.3 2.6 26 10.0 ESE 17 28 9 15 1022.3 1019.0 0.0
25/09:30am 22.1 17.4 3.1 28 9.3 ESE 17 28 9 15 1022.5 1019.3 0.0
25/09:00am 21.0 15.8 2.4 29 8.9 ESE 19 26 10 14 1022.3 1019.0 0.0
25/08:30am 20.1 15.7 2.5 31 8.4 ESE 15 19 8 10 1022.4 1019.2 0.0
25/08:00am 19.5 15.1 2.7 32 8.0 ESE 15 19 8 10 1021.9 1018.6 0.0

Other Formats:

Comma delimited format used in spreadsheet applications
http://www.bom.gov.au/fwo/IDD60801/IDD60801.94326.axf

JavaScript Object Notation format (JSON) in row-major order
http://www.bom.gov.au/fwo/IDD60801/IDD60801.94326.json